createdAt,value
2022-11-19T00:01:05.529Z,21.90
2022-11-19T00:06:10.482Z,21.88
2022-11-19T00:11:14.921Z,21.85
2022-11-19T00:16:19.022Z,21.83
2022-11-19T00:21:21.810Z,21.81
2022-11-19T00:26:25.467Z,21.80
2022-11-19T00:31:29.777Z,21.79
2022-11-19T00:36:32.522Z,21.78
2022-11-19T00:41:35.252Z,21.77
2022-11-19T00:46:39.392Z,21.75
2022-11-19T00:51:42.151Z,21.74
2022-11-19T00:56:44.990Z,21.74
2022-11-19T01:01:49.304Z,21.71
2022-11-19T01:06:52.117Z,21.71
2022-11-19T01:11:54.891Z,21.69
2022-11-19T01:16:58.979Z,21.68
2022-11-19T01:22:01.686Z,21.67
2022-11-19T01:27:04.683Z,21.67
2022-11-19T01:32:08.816Z,21.65
2022-11-19T01:37:11.543Z,21.62
2022-11-19T01:42:41.773Z,21.63
2022-11-19T01:47:46.696Z,21.63
2022-11-19T01:52:50.011Z,21.61
2022-11-19T01:57:57.333Z,21.60
2022-11-19T02:03:01.493Z,21.58
2022-11-19T02:08:08.695Z,21.56
2022-11-19T02:13:21.229Z,21.50
2022-11-19T02:18:38.820Z,21.47
2022-11-19T02:23:56.869Z,21.44
2022-11-19T02:29:10.852Z,21.39
2022-11-19T02:34:18.628Z,21.36
2022-11-19T02:39:27.060Z,21.32
2022-11-19T02:44:52.541Z,21.28
2022-11-19T02:50:02.816Z,21.25
2022-11-19T02:55:06.511Z,21.21
2022-11-19T03:00:28.097Z,21.17
2022-11-19T03:05:36.692Z,21.14
2022-11-19T03:10:49.207Z,21.09
2022-11-19T03:16:12.872Z,21.05
2022-11-19T03:21:23.826Z,21.01
2022-11-19T03:26:32.810Z,20.96
2022-11-19T03:31:37.317Z,20.92
2022-11-19T03:36:43.760Z,20.88
2022-11-19T03:41:49.805Z,20.82
2022-11-19T03:46:58.321Z,20.80
2022-11-19T03:52:07.256Z,20.73
2022-11-19T03:57:13.204Z,20.68
2022-11-19T04:02:17.224Z,20.64
2022-11-19T04:07:23.931Z,20.59
2022-11-19T04:12:26.846Z,20.54
2022-11-19T04:17:29.607Z,20.49
2022-11-19T04:22:33.767Z,20.44
2022-11-19T04:27:36.560Z,20.38
2022-11-19T04:32:39.295Z,20.33
2022-11-19T04:37:43.383Z,20.28
2022-11-19T04:42:46.132Z,20.23
2022-11-19T04:47:48.930Z,20.21
2022-11-19T04:52:53.063Z,20.16
2022-11-19T04:57:55.812Z,20.12
2022-11-19T05:02:59.136Z,20.06
2022-11-19T05:08:03.233Z,20.03
2022-11-19T05:13:06.041Z,19.99
2022-11-19T05:18:08.823Z,19.95
2022-11-19T05:23:12.993Z,19.91
2022-11-19T05:28:15.793Z,19.89
2022-11-19T05:33:18.829Z,19.86
2022-11-19T05:38:22.941Z,19.83
2022-11-19T05:43:25.725Z,19.80
2022-11-19T05:48:28.537Z,19.78
2022-11-19T05:53:32.772Z,19.75
2022-11-19T05:58:35.516Z,19.72
2022-11-19T06:03:38.395Z,19.70
2022-11-19T06:08:42.548Z,19.68
2022-11-19T06:13:45.296Z,19.66
2022-11-19T06:18:48.074Z,19.63
2022-11-19T06:23:52.234Z,19.61
2022-11-19T06:28:55.563Z,19.58
2022-11-19T06:33:58.509Z,19.55
2022-11-19T06:39:02.874Z,19.52
2022-11-19T06:44:05.906Z,19.50
2022-11-19T06:49:12.251Z,19.50
2022-11-19T06:54:18.541Z,19.46
2022-11-19T06:59:21.846Z,19.45
2022-11-19T07:04:24.769Z,19.44
2022-11-19T07:09:28.975Z,19.45
2022-11-19T07:14:31.707Z,19.47
2022-11-19T07:19:34.527Z,19.49
2022-11-19T07:24:38.761Z,19.47
2022-11-19T07:29:41.511Z,19.50
2022-11-19T07:34:44.297Z,19.51
2022-11-19T07:39:48.377Z,19.52
2022-11-19T07:44:54.762Z,19.54
2022-11-19T07:49:57.968Z,19.51
2022-11-19T07:55:02.568Z,19.51
2022-11-19T08:00:07.125Z,19.51
2022-11-19T08:05:16.047Z,19.52
2022-11-19T08:10:20.328Z,19.50
2022-11-19T08:15:23.082Z,19.48
2022-11-19T08:20:25.814Z,19.47
2022-11-19T08:25:30.019Z,19.54
2022-11-19T08:30:33.564Z,19.56
2022-11-19T08:35:36.427Z,19.58
2022-11-19T08:40:40.707Z,19.56
2022-11-19T08:45:53.741Z,19.53
2022-11-19T08:50:56.512Z,19.54
2022-11-19T08:56:00.782Z,19.56
2022-11-19T09:01:10.271Z,19.55
2022-11-19T09:06:13.459Z,18.30
2022-11-19T09:11:20.004Z,17.41
2022-11-19T09:16:22.796Z,18.17
2022-11-19T09:21:25.568Z,18.44
2022-11-19T09:26:29.893Z,18.59
2022-11-19T09:31:32.707Z,18.70
2022-11-19T09:36:35.539Z,18.82
2022-11-19T09:41:49.589Z,18.89
2022-11-19T09:47:04.021Z,18.95
2022-11-19T09:52:11.007Z,19.00
2022-11-19T09:57:22.867Z,19.06
2022-11-19T10:02:25.773Z,19.16
2022-11-19T10:07:41.828Z,19.18
2022-11-19T10:13:11.820Z,19.20
2022-11-19T10:18:20.577Z,19.25
2022-11-19T10:23:31.258Z,19.20
2022-11-19T10:28:39.383Z,19.33
2022-11-19T10:33:51.440Z,19.50
2022-11-19T10:39:03.801Z,19.66
2022-11-19T10:44:37.551Z,19.79
2022-11-19T10:49:42.440Z,19.91
2022-11-19T10:54:46.756Z,20.02
2022-11-19T10:59:54.629Z,20.10
2022-11-19T11:05:02.576Z,20.17
2022-11-19T11:10:26.438Z,20.27
2022-11-19T11:15:30.677Z,20.35
2022-11-19T11:20:33.975Z,20.46
2022-11-19T11:25:39.296Z,20.53
2022-11-19T11:30:53.570Z,20.62
2022-11-19T11:35:58.606Z,20.69
2022-11-19T11:41:48.504Z,20.77
2022-11-19T11:46:41.636Z,20.90
2022-11-19T11:51:44.577Z,21.01
2022-11-19T11:56:48.432Z,21.10
2022-11-19T12:01:56.724Z,21.20
2022-11-19T12:07:14.020Z,21.32
2022-11-19T12:12:25.312Z,21.46
2022-11-19T12:17:40.605Z,21.58
2022-11-19T12:23:01.428Z,21.71
2022-11-19T12:28:18.571Z,21.79
2022-11-19T12:33:38.647Z,21.88
2022-11-19T12:38:48.819Z,21.89
2022-11-19T12:43:56.895Z,21.91
2022-11-19T12:49:21.469Z,21.96
2022-11-19T12:54:41.256Z,22.01
2022-11-19T13:00:02.302Z,22.10
2022-11-19T13:05:15.207Z,22.15
2022-11-19T13:10:22.286Z,22.14
2022-11-19T13:15:31.110Z,22.16
2022-11-19T13:20:45.286Z,22.21
2022-11-19T13:25:56.018Z,22.23
2022-11-19T13:31:05.632Z,22.26
2022-11-19T13:36:20.586Z,22.30
2022-11-19T13:41:27.986Z,22.27
2022-11-19T13:46:39.942Z,22.26
2022-11-19T13:51:48.743Z,22.26
2022-11-19T13:56:54.315Z,22.23
2022-11-19T14:02:10.460Z,22.03
2022-11-19T14:07:52.106Z,22.11
2022-11-19T14:13:12.869Z,22.17
2022-11-19T14:18:43.244Z,22.15
2022-11-19T14:24:06.169Z,22.11
2022-11-19T14:29:47.715Z,22.07
2022-11-19T14:35:29.221Z,22.03
2022-11-19T14:40:38.522Z,22.00
2022-11-19T14:46:24.533Z,21.96
2022-11-19T14:51:32.072Z,21.91
2022-11-19T14:56:38.726Z,21.88
2022-11-19T15:01:56.611Z,21.85
2022-11-19T15:07:01.599Z,21.86
2022-11-19T15:12:05.845Z,21.82
2022-11-19T15:17:11.211Z,21.80
2022-11-19T15:22:31.320Z,21.80
2022-11-19T15:27:56.381Z,21.83
2022-11-19T15:33:17.971Z,21.89
2022-11-19T15:38:31.038Z,21.94
2022-11-19T15:43:42.675Z,22.01
2022-11-19T15:48:55.883Z,22.05
2022-11-19T15:54:00.367Z,22.11
2022-11-19T15:59:06.395Z,22.19
2022-11-19T16:09:22.621Z,22.25
2022-11-19T16:14:46.259Z,22.25
2022-11-19T16:20:19.002Z,22.27
2022-11-19T16:25:29.068Z,22.32
2022-11-19T16:30:46.336Z,22.36
2022-11-19T16:35:52.928Z,22.44
2022-11-19T16:41:15.351Z,22.50
2022-11-19T16:46:23.321Z,22.55
2022-11-19T16:51:33.078Z,22.57
2022-11-19T16:56:41.494Z,22.61
2022-11-19T17:01:52.418Z,22.66
2022-11-19T17:06:56.063Z,22.69
2022-11-19T17:12:16.325Z,22.76
2022-11-19T17:17:40.789Z,22.80
2022-11-19T17:22:43.977Z,22.82
2022-11-19T17:27:51.951Z,22.84
2022-11-19T17:33:02.357Z,22.89
2022-11-19T17:38:10.700Z,22.92
2022-11-19T17:43:32.988Z,22.94
2022-11-19T17:48:40.597Z,22.96
2022-11-19T17:53:43.903Z,22.99
2022-11-19T17:58:47.056Z,23.01
2022-11-19T18:03:51.303Z,23.07
2022-11-19T18:08:54.263Z,23.09
2022-11-19T18:14:01.804Z,23.15
2022-11-19T18:19:11.749Z,23.17
2022-11-19T18:24:14.684Z,23.19
2022-11-19T18:29:17.426Z,23.21
2022-11-19T18:34:24.162Z,23.23
2022-11-19T18:39:27.028Z,23.26
2022-11-19T18:44:36.025Z,23.30
2022-11-19T18:49:40.869Z,23.34
2022-11-19T18:54:44.184Z,23.36
2022-11-19T18:59:47.042Z,23.38
2022-11-19T19:04:51.666Z,23.42
2022-11-19T19:09:54.409Z,23.46
2022-11-19T19:14:58.828Z,23.43
2022-11-19T19:20:03.574Z,23.43
2022-11-19T19:25:07.511Z,23.43
2022-11-19T19:30:11.648Z,23.41
2022-11-19T19:35:16.033Z,23.41
2022-11-19T19:40:19.018Z,23.43
2022-11-19T19:45:21.972Z,23.40
2022-11-19T19:50:26.099Z,23.36
2022-11-19T19:55:28.885Z,23.31
2022-11-19T20:00:31.725Z,23.27
2022-11-19T20:05:35.836Z,23.22
2022-11-19T20:10:38.572Z,23.19
2022-11-19T20:15:41.486Z,23.18
2022-11-19T20:20:45.876Z,23.16
2022-11-19T20:25:48.653Z,23.12
2022-11-19T20:30:51.614Z,23.11
2022-11-19T20:35:55.874Z,23.08
2022-11-19T20:41:00.517Z,23.08
2022-11-19T20:46:08.301Z,23.08
2022-11-19T20:51:13.276Z,23.09
2022-11-19T20:56:16.095Z,23.11
2022-11-19T21:01:18.864Z,23.08
2022-11-19T21:06:23.137Z,23.07
2022-11-19T21:11:26.351Z,23.05
2022-11-19T21:16:29.858Z,22.99
2022-11-19T21:21:34.599Z,23.00
2022-11-19T21:26:37.480Z,22.97
2022-11-19T21:31:41.980Z,22.98
2022-11-19T21:36:46.956Z,22.95
2022-11-19T21:41:49.936Z,22.92
2022-11-19T21:46:52.693Z,22.92
2022-11-19T21:51:56.827Z,22.94
2022-11-19T21:57:00.594Z,22.95
2022-11-19T22:02:03.366Z,22.94
2022-11-19T22:07:07.757Z,22.93
2022-11-19T22:12:10.563Z,22.92
2022-11-19T22:17:13.399Z,22.91
2022-11-19T22:22:17.533Z,22.91
2022-11-19T22:27:20.446Z,22.90
2022-11-19T22:32:23.516Z,22.88
2022-11-19T22:37:27.683Z,22.83
2022-11-19T22:42:30.780Z,22.87
2022-11-19T22:47:35.816Z,22.82
2022-11-19T22:52:39.991Z,22.82
2022-11-19T22:57:42.732Z,22.79
2022-11-19T23:02:45.460Z,22.78
2022-11-19T23:07:49.821Z,22.75
2022-11-19T23:13:09.489Z,22.75
2022-11-19T23:18:12.238Z,22.74
2022-11-19T23:23:16.379Z,22.73
2022-11-19T23:28:19.160Z,22.73
2022-11-19T23:33:22.737Z,22.70
2022-11-19T23:38:26.864Z,22.71
2022-11-19T23:43:30.466Z,22.70
2022-11-19T23:48:34.012Z,22.69
2022-11-19T23:53:38.374Z,22.69
2022-11-19T23:58:41.965Z,22.69
